Wolcott, IN (47995)

8:15 AM EDT on July 22, 2014 (GMT -0400)
Jasper County (KRZL) Elev 696 ft | 40.95 °N, 87.18 °W | Change Station

Current weather conditions updated 20 minutes ago

Clear
Clear
63 °F
Feels Like 63 °F
N
0
Wind Variable Wind from North

Today is forecast to be nearly the same temperature as yesterday. Late night thunderstorms tonight.

Today
High -- | Low -- °F
--% Chance of Precip.
Yesterday
High -- | Low -- °F
Precip. -- in
6:35 AM 9:13 PM
Waning Crescent, 17% visible
Pressure 30.11 in
Visibility 3.0 miles
Clouds Clear
Dew Point 63 °F
Humidity 100%
Rainfall 0.00 in
Snow Depth Not available.
UV 1 out of 12
Pollen 5.60 out of 12
Air Quality Not available.
Flu Activity Sporadic
METAR KRZL 221155Z AUTO 00000KT 3SM BR CLR 17/17 A3011 RMK AO2

More Conditions Fewer Conditions

Pressure 30.11 in
Visibility 3.0 miles
Clouds Clear
Dew Point 63 °F
Humidity 100%
Rainfall 0.00 in
Snow Depth Not available.
UV 1 out of 12
Pollen 5.60 out of 12
Air Quality Not available.
Flu Activity Sporadic
METAR KRZL 221155Z AUTO 00000KT 3SM BR CLR 17/17 A3011 RMK AO2

More Conditions Fewer Conditions

10-Day Weather Forecast

LIGHTNING

Thunderstorms are forecast for your area. Cloud conditions might be right for producing strikes in the next few days, though lightning itself cannot be forecasted.

Lightning is a visible electrical discharge produced by a thunderstorm, based on the build up of oppositely charged particles within a cloud and from cloud to ground.

Know how to stay safe in a lightning storm.

Check out these Lightning WunderPhotos!

Almanac

Astronomy

Jul. 22, 2014 Rise Set
Actual Time 6:35 AM EDT 9:13 PM EDT
Civil Twilight 6:03 AM EDT 9:44 PM EDT
Nautical Twilight 5:24 AM EDT 10:24 PM EDT
Astronomical Twilight 4:39 AM EDT 11:08 PM EDT
Moon 3:08 AM EDT 5:50 PM EDT
Length of Visible Light 15h 41m
Length of Day
14h 37m
Tomorrow will be 1m 43s shorter.
Waning Crescent, 17% of the Moon is Illuminated
Today
Waning Crescent
Jul 26
New
Aug 3
First Quarter
Aug 10
Full
Aug 17
Last Quarter

Today's Extremes

State Highs State Lows

Community

WunderPhotos

Upload Photos

1,736,206 photos uploaded!

Nearby

Snow Depth

Station Depth Elevation
No new snow has been reported.

Earthquake Activity

City Distance Mag. Time & Date
No recent earthquake activity has been reported nearby.
Minimum magnitude displayed is 2.5.

Coastal Water Temperatures

Place Temperature
No Stations Reporting

Nearby Weather Stations

Station Location Temp. Dew Point Humidity Wind Precip. Elev Updated Type
Bluewater Drive, Monticello, IN 70.5 °F 70 °F 98% ESE  at  0.0 mph - / hr 623 ft 8:04 AM EDT Normal
Oxford, Oxford, IN 65.8 °F 62 °F 87% East  at  0.0 mph 0.00 in / hr 732 ft 8:11 AM EDT Normal
Prophet's Ridge, West Lafayette, IN 66.9 °F 66 °F 97% SE  at  0.0 mph 0.00 in / hr 679 ft 8:14 AM EDT Normal
Pine View Farms, West Lafayette, IN 70.0 °F 65 °F 84% SSW  at  2.5 mph 0.00 in / hr 696 ft 8:15 AM EDT Rapid Fire

Show More Stations Show Fewer Stations